sensor_id;sensor_type;location;lat;lon;timestamp;P1;durP1;ratioP1;P2;durP2;ratioP2
40623;SDS011;26325;48.594;11.650;2024-03-17T00:01:03;3.75;;;3.47;;
40623;SDS011;26325;48.594;11.650;2024-03-17T00:03:30;3.50;;;3.20;;
40623;SDS011;26325;48.594;11.650;2024-03-17T00:06:00;3.38;;;3.08;;
40623;SDS011;26325;48.594;11.650;2024-03-17T00:08:27;3.72;;;3.42;;
40623;SDS011;26325;48.594;11.650;2024-03-17T00:10:53;3.42;;;3.13;;
40623;SDS011;26325;48.594;11.650;2024-03-17T00:13:22;4.05;;;3.75;;
40623;SDS011;26325;48.594;11.650;2024-03-17T00:15:49;3.67;;;3.38;;
40623;SDS011;26325;48.594;11.650;2024-03-17T00:18:21;3.42;;;3.10;;
40623;SDS011;26325;48.594;11.650;2024-03-17T00:20:47;4.35;;;4.00;;
40623;SDS011;26325;48.594;11.650;2024-03-17T00:23:13;4.40;;;4.00;;
40623;SDS011;26325;48.594;11.650;2024-03-17T00:25:39;4.03;;;3.72;;
40623;SDS011;26325;48.594;11.650;2024-03-17T00:28:05;4.45;;;3.90;;
40623;SDS011;26325;48.594;11.650;2024-03-17T00:30:31;4.15;;;3.85;;
40623;SDS011;26325;48.594;11.650;2024-03-17T00:32:57;3.83;;;3.53;;
40623;SDS011;26325;48.594;11.650;2024-03-17T00:35:26;4.13;;;3.78;;
40623;SDS011;26325;48.594;11.650;2024-03-17T00:37:51;4.35;;;3.92;;
40623;SDS011;26325;48.594;11.650;2024-03-17T00:40:18;3.75;;;3.38;;
40623;SDS011;26325;48.594;11.650;2024-03-17T00:42:45;4.18;;;3.88;;
40623;SDS011;26325;48.594;11.650;2024-03-17T00:45:15;3.90;;;3.60;;
40623;SDS011;26325;48.594;11.650;2024-03-17T00:47:43;3.63;;;3.33;;
40623;SDS011;26325;48.594;11.650;2024-03-17T00:50:09;4.45;;;4.05;;
40623;SDS011;26325;48.594;11.650;2024-03-17T00:52:36;4.45;;;4.10;;
40623;SDS011;26325;48.594;11.650;2024-03-17T00:55:03;4.65;;;4.25;;
40623;SDS011;26325;48.594;11.650;2024-03-17T00:57:28;3.63;;;3.33;;
40623;SDS011;26325;48.594;11.650;2024-03-17T00:59:56;4.65;;;4.15;;
40623;SDS011;26325;48.594;11.650;2024-03-17T01:02:22;4.07;;;3.78;;
40623;SDS011;26325;48.594;11.650;2024-03-17T01:04:47;4.45;;;4.05;;
40623;SDS011;26325;48.594;11.650;2024-03-17T01:07:13;4.68;;;4.28;;
40623;SDS011;26325;48.594;11.650;2024-03-17T01:12:06;4.03;;;3.72;;
40623;SDS011;26325;48.594;11.650;2024-03-17T01:14:32;4.47;;;4.07;;
40623;SDS011;26325;48.594;11.650;2024-03-17T01:16:59;3.90;;;3.60;;
40623;SDS011;26325;48.594;11.650;2024-03-17T01:19:25;3.30;;;3.00;;
40623;SDS011;26325;48.594;11.650;2024-03-17T01:21:52;3.63;;;3.33;;
40623;SDS011;26325;48.594;11.650;2024-03-17T01:24:17;3.80;;;3.50;;
40623;SDS011;26325;48.594;11.650;2024-03-17T01:26:43;3.30;;;3.00;;
40623;SDS011;26325;48.594;11.650;2024-03-17T01:29:11;3.72;;;3.35;;
40623;SDS011;26325;48.594;11.650;2024-03-17T01:31:37;3.88;;;3.58;;
40623;SDS011;26325;48.594;11.650;2024-03-17T01:34:03;4.38;;;3.83;;
40623;SDS011;26325;48.594;11.650;2024-03-17T01:36:30;3.53;;;3.22;;
40623;SDS011;26325;48.594;11.650;2024-03-17T01:38:59;3.38;;;3.08;;
40623;SDS011;26325;48.594;11.650;2024-03-17T01:41:27;3.58;;;3.28;;
40623;SDS011;26325;48.594;11.650;2024-03-17T01:43:53;4.00;;;3.70;;
40623;SDS011;26325;48.594;11.650;2024-03-17T01:46:19;3.78;;;3.47;;
40623;SDS011;26325;48.594;11.650;2024-03-17T01:48:44;3.58;;;3.28;;
40623;SDS011;26325;48.594;11.650;2024-03-17T01:51:11;3.60;;;3.30;;
40623;SDS011;26325;48.594;11.650;2024-03-17T01:53:39;3.80;;;3.50;;
40623;SDS011;26325;48.594;11.650;2024-03-17T01:56:05;4.18;;;3.88;;
40623;SDS011;26325;48.594;11.650;2024-03-17T01:58:35;3.70;;;3.40;;
40623;SDS011;26325;48.594;11.650;2024-03-17T02:01:04;6.03;;;4.05;;
40623;SDS011;26325;48.594;11.650;2024-03-17T02:03:30;4.47;;;4.07;;
40623;SDS011;26325;48.594;11.650;2024-03-17T02:05:56;3.15;;;2.92;;
40623;SDS011;26325;48.594;11.650;2024-03-17T02:08:22;4.20;;;3.88;;
40623;SDS011;26325;48.594;11.650;2024-03-17T02:10:54;4.35;;;4.00;;
40623;SDS011;26325;48.594;11.650;2024-03-17T02:13:21;4.05;;;3.72;;
40623;SDS011;26325;48.594;11.650;2024-03-17T02:15:47;3.75;;;3.45;;
40623;SDS011;26325;48.594;11.650;2024-03-17T02:18:15;3.60;;;3.30;;
40623;SDS011;26325;48.594;11.650;2024-03-17T02:20:43;3.33;;;3.03;;
40623;SDS011;26325;48.594;11.650;2024-03-17T02:23:23;3.67;;;3.17;;
40623;SDS011;26325;48.594;11.650;2024-03-17T02:25:52;3.75;;;3.20;;
40623;SDS011;26325;48.594;11.650;2024-03-17T02:28:18;3.70;;;3.40;;
40623;SDS011;26325;48.594;11.650;2024-03-17T02:30:44;3.92;;;3.33;;
40623;SDS011;26325;48.594;11.650;2024-03-17T02:33:09;3.50;;;3.20;;
40623;SDS011;26325;48.594;11.650;2024-03-17T02:35:35;3.40;;;3.10;;
40623;SDS011;26325;48.594;11.650;2024-03-17T02:38:01;3.08;;;2.88;;
40623;SDS011;26325;48.594;11.650;2024-03-17T02:40:30;5.00;;;3.28;;
40623;SDS011;26325;48.594;11.650;2024-03-17T02:42:55;2.95;;;2.63;;
40623;SDS011;26325;48.594;11.650;2024-03-17T02:45:21;2.63;;;2.42;;
40623;SDS011;26325;48.594;11.650;2024-03-17T02:47:46;3.33;;;2.88;;
40623;SDS011;26325;48.594;11.650;2024-03-17T02:50:12;3.13;;;2.70;;
40623;SDS011;26325;48.594;11.650;2024-03-17T02:52:39;3.30;;;3.10;;
40623;SDS011;26325;48.594;11.650;2024-03-17T02:55:05;3.50;;;3.20;;
40623;SDS011;26325;48.594;11.650;2024-03-17T02:57:31;3.45;;;3.15;;
40623;SDS011;26325;48.594;11.650;2024-03-17T02:59:58;4.65;;;3.80;;
40623;SDS011;26325;48.594;11.650;2024-03-17T03:02:29;3.97;;;3.67;;
40623;SDS011;26325;48.594;11.650;2024-03-17T03:04:54;5.57;;;3.45;;
40623;SDS011;26325;48.594;11.650;2024-03-17T03:07:20;3.30;;;3.00;;
40623;SDS011;26325;48.594;11.650;2024-03-17T03:09:45;10.15;;;3.20;;
40623;SDS011;26325;48.594;11.650;2024-03-17T03:12:12;4.70;;;3.00;;
40623;SDS011;26325;48.594;11.650;2024-03-17T03:14:38;3.78;;;3.47;;
40623;SDS011;26325;48.594;11.650;2024-03-17T03:17:03;4.03;;;3.63;;
40623;SDS011;26325;48.594;11.650;2024-03-17T03:19:29;3.58;;;3.08;;
40623;SDS011;26325;48.594;11.650;2024-03-17T03:21:57;3.20;;;3.00;;
40623;SDS011;26325;48.594;11.650;2024-03-17T03:24:23;3.35;;;3.03;;
40623;SDS011;26325;48.594;11.650;2024-03-17T03:26:48;6.82;;;3.17;;
40623;SDS011;26325;48.594;11.650;2024-03-17T03:29:14;3.55;;;3.25;;
40623;SDS011;26325;48.594;11.650;2024-03-17T03:31:40;3.25;;;2.97;;
40623;SDS011;26325;48.594;11.650;2024-03-17T03:34:06;3.42;;;3.13;;
40623;SDS011;26325;48.594;11.650;2024-03-17T03:36:38;3.50;;;3.20;;
40623;SDS011;26325;48.594;11.650;2024-03-17T03:39:04;3.20;;;3.00;;
40623;SDS011;26325;48.594;11.650;2024-03-17T03:41:30;3.58;;;3.28;;
40623;SDS011;26325;48.594;11.650;2024-03-17T03:43:57;4.40;;;4.00;;
40623;SDS011;26325;48.594;11.650;2024-03-17T03:46:25;3.95;;;3.55;;
40623;SDS011;26325;48.594;11.650;2024-03-17T03:48:51;3.83;;;3.53;;
40623;SDS011;26325;48.594;11.650;2024-03-17T03:51:17;4.00;;;3.60;;
40623;SDS011;26325;48.594;11.650;2024-03-17T03:53:42;3.42;;;3.13;;
40623;SDS011;26325;48.594;11.650;2024-03-17T03:56:10;3.83;;;3.53;;
40623;SDS011;26325;48.594;11.650;2024-03-17T03:58:36;3.50;;;3.20;;
40623;SDS011;26325;48.594;11.650;2024-03-17T04:01:08;3.85;;;3.30;;
40623;SDS011;26325;48.594;11.650;2024-03-17T04:03:34;3.53;;;3.22;;
40623;SDS011;26325;48.594;11.650;2024-03-17T04:06:02;3.47;;;3.17;;
40623;SDS011;26325;48.594;11.650;2024-03-17T04:08:32;3.58;;;3.28;;
40623;SDS011;26325;48.594;11.650;2024-03-17T04:11:04;4.07;;;3.72;;
40623;SDS011;26325;48.594;11.650;2024-03-17T04:13:30;4.03;;;3.63;;
40623;SDS011;26325;48.594;11.650;2024-03-17T04:15:56;3.65;;;3.40;;
40623;SDS011;26325;48.594;11.650;2024-03-17T04:18:25;3.63;;;3.33;;
40623;SDS011;26325;48.594;11.650;2024-03-17T04:21:00;4.45;;;4.05;;
40623;SDS011;26325;48.594;11.650;2024-03-17T04:23:27;3.87;;;3.57;;
40623;SDS011;26325;48.594;11.650;2024-03-17T04:25:57;4.47;;;4.18;;
40623;SDS011;26325;48.594;11.650;2024-03-17T04:28:26;4.45;;;4.05;;
40623;SDS011;26325;48.594;11.650;2024-03-17T04:31:14;3.92;;;3.53;;
40623;SDS011;26325;48.594;11.650;2024-03-17T04:33:42;3.78;;;3.47;;
40623;SDS011;26325;48.594;11.650;2024-03-17T04:36:11;3.92;;;3.63;;
40623;SDS011;26325;48.594;11.650;2024-03-17T04:38:39;3.83;;;3.53;;
40623;SDS011;26325;48.594;11.650;2024-03-17T04:41:04;3.85;;;3.55;;
40623;SDS011;26325;48.594;11.650;2024-03-17T04:43:31;4.00;;;3.70;;
40623;SDS011;26325;48.594;11.650;2024-03-17T04:46:01;4.00;;;3.70;;
40623;SDS011;26325;48.594;11.650;2024-03-17T04:48:32;4.20;;;3.85;;
40623;SDS011;26325;48.594;11.650;2024-03-17T04:50:59;4.50;;;4.10;;
40623;SDS011;26325;48.594;11.650;2024-03-17T04:53:26;4.15;;;3.80;;
40623;SDS011;26325;48.594;11.650;2024-03-17T04:56:18;4.60;;;4.20;;
40623;SDS011;26325;48.594;11.650;2024-03-17T04:58:43;4.75;;;4.35;;
40623;SDS011;26325;48.594;11.650;2024-03-17T05:01:09;4.25;;;3.95;;
40623;SDS011;26325;48.594;11.650;2024-03-17T05:03:35;4.25;;;3.95;;
40623;SDS011;26325;48.594;11.650;2024-03-17T05:06:02;4.35;;;3.95;;
40623;SDS011;26325;48.594;11.650;2024-03-17T05:08:29;3.97;;;3.67;;
40623;SDS011;26325;48.594;11.650;2024-03-17T05:11:00;4.22;;;3.92;;
40623;SDS011;26325;48.594;11.650;2024-03-17T05:13:28;4.63;;;4.22;;
40623;SDS011;26325;48.594;11.650;2024-03-17T05:15:54;4.53;;;4.13;;
40623;SDS011;26325;48.594;11.650;2024-03-17T05:18:20;4.57;;;4.18;;
40623;SDS011;26325;48.594;11.650;2024-03-17T05:21:14;3.72;;;3.42;;
40623;SDS011;26325;48.594;11.650;2024-03-17T05:23:40;4.25;;;3.85;;
40623;SDS011;26325;48.594;11.650;2024-03-17T05:26:07;3.72;;;3.42;;
40623;SDS011;26325;48.594;11.650;2024-03-17T05:28:33;3.90;;;3.42;;
40623;SDS011;26325;48.594;11.650;2024-03-17T05:30:59;3.78;;;3.47;;
40623;SDS011;26325;48.594;11.650;2024-03-17T05:33:25;4.53;;;4.13;;
40623;SDS011;26325;48.594;11.650;2024-03-17T05:35:58;4.55;;;4.15;;
40623;SDS011;26325;48.594;11.650;2024-03-17T05:38:28;4.80;;;4.40;;
40623;SDS011;26325;48.594;11.650;2024-03-17T05:43:31;4.25;;;3.95;;
40623;SDS011;26325;48.594;11.650;2024-03-17T05:46:08;4.30;;;3.90;;
40623;SDS011;26325;48.594;11.650;2024-03-17T05:48:35;4.50;;;4.10;;
40623;SDS011;26325;48.594;11.650;2024-03-17T05:51:14;4.90;;;4.40;;
40623;SDS011;26325;48.594;11.650;2024-03-17T05:53:41;4.38;;;3.95;;
40623;SDS011;26325;48.594;11.650;2024-03-17T05:56:09;4.03;;;3.70;;
40623;SDS011;26325;48.594;11.650;2024-03-17T05:58:37;4.65;;;4.25;;
40623;SDS011;26325;48.594;11.650;2024-03-17T06:01:03;4.50;;;4.10;;
40623;SDS011;26325;48.594;11.650;2024-03-17T06:03:29;4.07;;;3.78;;
40623;SDS011;26325;48.594;11.650;2024-03-17T06:05:58;4.57;;;4.22;;
40623;SDS011;26325;48.594;11.650;2024-03-17T06:08:25;4.30;;;3.97;;
40623;SDS011;26325;48.594;11.650;2024-03-17T06:10:50;5.05;;;4.60;;
40623;SDS011;26325;48.594;11.650;2024-03-17T06:13:18;5.43;;;5.00;;
40623;SDS011;26325;48.594;11.650;2024-03-17T06:15:46;4.57;;;4.18;;
40623;SDS011;26325;48.594;11.650;2024-03-17T06:18:13;5.18;;;4.70;;
40623;SDS011;26325;48.594;11.650;2024-03-17T06:20:46;4.88;;;4.38;;
40623;SDS011;26325;48.594;11.650;2024-03-17T06:23:15;4.72;;;4.32;;
40623;SDS011;26325;48.594;11.650;2024-03-17T06:25:45;4.80;;;4.40;;
40623;SDS011;26325;48.594;11.650;2024-03-17T06:28:13;5.15;;;4.68;;
40623;SDS011;26325;48.594;11.650;2024-03-17T06:30:54;5.30;;;4.80;;
40623;SDS011;26325;48.594;11.650;2024-03-17T06:33:24;5.20;;;4.70;;
40623;SDS011;26325;48.594;11.650;2024-03-17T06:35:50;5.47;;;5.07;;
40623;SDS011;26325;48.594;11.650;2024-03-17T06:38:16;5.38;;;4.95;;
40623;SDS011;26325;48.594;11.650;2024-03-17T06:40:50;4.07;;;3.75;;
40623;SDS011;26325;48.594;11.650;2024-03-17T06:43:19;5.10;;;4.70;;
40623;SDS011;26325;48.594;11.650;2024-03-17T06:45:59;5.38;;;4.88;;
40623;SDS011;26325;48.594;11.650;2024-03-17T06:48:29;5.40;;;4.93;;
40623;SDS011;26325;48.594;11.650;2024-03-17T06:50:55;5.38;;;4.88;;
40623;SDS011;26325;48.594;11.650;2024-03-17T06:55:57;4.90;;;4.50;;
40623;SDS011;26325;48.594;11.650;2024-03-17T06:58:24;5.40;;;5.00;;
40623;SDS011;26325;48.594;11.650;2024-03-17T07:00:56;5.30;;;4.90;;
40623;SDS011;26325;48.594;11.650;2024-03-17T07:03:28;4.97;;;4.60;;
40623;SDS011;26325;48.594;11.650;2024-03-17T07:06:01;4.53;;;4.15;;
40623;SDS011;26325;48.594;11.650;2024-03-17T07:08:29;5.80;;;5.30;;
40623;SDS011;26325;48.594;11.650;2024-03-17T07:13:37;5.72;;;5.22;;
40623;SDS011;26325;48.594;11.650;2024-03-17T07:16:07;6.65;;;6.15;;
40623;SDS011;26325;48.594;11.650;2024-03-17T07:18:33;6.13;;;5.60;;
40623;SDS011;26325;48.594;11.650;2024-03-17T07:21:00;6.82;;;6.13;;
40623;SDS011;26325;48.594;11.650;2024-03-17T07:23:29;7.20;;;6.53;;
40623;SDS011;26325;48.594;11.650;2024-03-17T07:26:00;6.68;;;6.18;;
40623;SDS011;26325;48.594;11.650;2024-03-17T07:28:30;7.57;;;6.68;;
40623;SDS011;26325;48.594;11.650;2024-03-17T07:30:59;8.30;;;7.55;;
40623;SDS011;26325;48.594;11.650;2024-03-17T07:33:30;7.47;;;6.88;;
40623;SDS011;26325;48.594;11.650;2024-03-17T07:35:57;8.18;;;7.47;;
40623;SDS011;26325;48.594;11.650;2024-03-17T07:38:25;8.70;;;8.00;;
40623;SDS011;26325;48.594;11.650;2024-03-17T07:41:03;8.68;;;7.97;;
40623;SDS011;26325;48.594;11.650;2024-03-17T07:43:34;9.25;;;8.48;;
40623;SDS011;26325;48.594;11.650;2024-03-17T07:48:36;9.15;;;8.45;;
40623;SDS011;26325;48.594;11.650;2024-03-17T07:51:10;9.32;;;8.48;;
40623;SDS011;26325;48.594;11.650;2024-03-17T07:53:37;8.38;;;7.68;;
40623;SDS011;26325;48.594;11.650;2024-03-17T07:56:14;8.60;;;7.90;;
40623;SDS011;26325;48.594;11.650;2024-03-17T08:01:10;9.00;;;8.13;;
40623;SDS011;26325;48.594;11.650;2024-03-17T08:03:38;9.32;;;8.43;;
40623;SDS011;26325;48.594;11.650;2024-03-17T08:06:06;9.18;;;8.40;;
40623;SDS011;26325;48.594;11.650;2024-03-17T08:08:34;11.55;;;8.85;;
40623;SDS011;26325;48.594;11.650;2024-03-17T08:11:00;9.00;;;8.10;;
40623;SDS011;26325;48.594;11.650;2024-03-17T08:13:32;9.00;;;8.20;;
40623;SDS011;26325;48.594;11.650;2024-03-17T08:16:06;8.93;;;8.13;;
40623;SDS011;26325;48.594;11.650;2024-03-17T08:18:35;9.13;;;8.27;;
40623;SDS011;26325;48.594;11.650;2024-03-17T08:21:02;9.45;;;8.55;;
40623;SDS011;26325;48.594;11.650;2024-03-17T08:23:35;9.32;;;8.55;;
40623;SDS011;26325;48.594;11.650;2024-03-17T08:26:04;8.68;;;7.88;;
40623;SDS011;26325;48.594;11.650;2024-03-17T08:28:30;8.55;;;7.78;;
40623;SDS011;26325;48.594;11.650;2024-03-17T08:30:59;8.75;;;7.95;;
40623;SDS011;26325;48.594;11.650;2024-03-17T08:33:28;7.82;;;7.13;;
40623;SDS011;26325;48.594;11.650;2024-03-17T08:36:00;8.35;;;7.65;;
40623;SDS011;26325;48.594;11.650;2024-03-17T08:38:28;7.80;;;7.20;;
40623;SDS011;26325;48.594;11.650;2024-03-17T08:41:04;7.97;;;7.20;;
40623;SDS011;26325;48.594;11.650;2024-03-17T08:46:05;7.22;;;6.50;;
40623;SDS011;26325;48.594;11.650;2024-03-17T08:48:33;7.75;;;7.15;;
40623;SDS011;26325;48.594;11.650;2024-03-17T08:51:03;7.80;;;7.10;;
40623;SDS011;26325;48.594;11.650;2024-03-17T08:53:33;7.70;;;7.00;;
40623;SDS011;26325;48.594;11.650;2024-03-17T08:55:59;7.18;;;6.60;;
40623;SDS011;26325;48.594;11.650;2024-03-17T08:58:27;7.53;;;6.93;;
40623;SDS011;26325;48.594;11.650;2024-03-17T09:00:58;7.10;;;6.50;;
40623;SDS011;26325;48.594;11.650;2024-03-17T09:03:25;8.65;;;7.95;;
40623;SDS011;26325;48.594;11.650;2024-03-17T09:05:53;7.72;;;7.13;;
40623;SDS011;26325;48.594;11.650;2024-03-17T09:08:23;8.32;;;7.63;;
40623;SDS011;26325;48.594;11.650;2024-03-17T09:10:51;7.03;;;6.38;;
40623;SDS011;26325;48.594;11.650;2024-03-17T09:13:24;7.63;;;7.00;;
40623;SDS011;26325;48.594;11.650;2024-03-17T09:18:22;6.82;;;6.25;;
40623;SDS011;26325;48.594;11.650;2024-03-17T09:21:10;6.80;;;6.25;;
40623;SDS011;26325;48.594;11.650;2024-03-17T09:23:36;6.00;;;5.50;;
40623;SDS011;26325;48.594;11.650;2024-03-17T09:26:08;6.47;;;5.97;;
40623;SDS011;26325;48.594;11.650;2024-03-17T09:28:37;5.43;;;5.03;;
40623;SDS011;26325;48.594;11.650;2024-03-17T09:31:03;5.40;;;5.00;;
40623;SDS011;26325;48.594;11.650;2024-03-17T09:33:32;5.40;;;4.90;;
40623;SDS011;26325;48.594;11.650;2024-03-17T09:36:03;4.95;;;4.55;;
40623;SDS011;26325;48.594;11.650;2024-03-17T09:38:31;6.13;;;5.40;;
40623;SDS011;26325;48.594;11.650;2024-03-17T09:40:58;6.20;;;5.30;;
40623;SDS011;26325;48.594;11.650;2024-03-17T09:43:27;5.88;;;5.38;;
40623;SDS011;26325;48.594;11.650;2024-03-17T09:45:54;5.10;;;4.60;;
40623;SDS011;26325;48.594;11.650;2024-03-17T09:48:26;5.22;;;4.82;;
40623;SDS011;26325;48.594;11.650;2024-03-17T09:51:02;6.65;;;5.45;;
40623;SDS011;26325;48.594;11.650;2024-03-17T09:53:34;5.60;;;5.00;;
40623;SDS011;26325;48.594;11.650;2024-03-17T09:56:13;4.90;;;4.50;;
40623;SDS011;26325;48.594;11.650;2024-03-17T09:58:47;4.57;;;4.18;;
40623;SDS011;26325;48.594;11.650;2024-03-17T10:01:16;3.97;;;3.67;;
40623;SDS011;26325;48.594;11.650;2024-03-17T10:03:53;5.60;;;5.10;;
40623;SDS011;26325;48.594;11.650;2024-03-17T10:06:30;4.65;;;4.25;;
40623;SDS011;26325;48.594;11.650;2024-03-17T10:09:00;4.72;;;4.32;;
40623;SDS011;26325;48.594;11.650;2024-03-17T10:11:33;4.43;;;4.13;;
40623;SDS011;26325;48.594;11.650;2024-03-17T10:14:20;4.47;;;4.07;;
40623;SDS011;26325;48.594;11.650;2024-03-17T10:16:47;4.30;;;4.00;;
40623;SDS011;26325;48.594;11.650;2024-03-17T10:19:23;4.82;;;4.40;;
40623;SDS011;26325;48.594;11.650;2024-03-17T10:21:57;4.60;;;4.25;;
40623;SDS011;26325;48.594;11.650;2024-03-17T10:24:43;3.85;;;3.55;;
40623;SDS011;26325;48.594;11.650;2024-03-17T10:27:09;3.95;;;3.65;;
40623;SDS011;26325;48.594;11.650;2024-03-17T10:29:37;3.95;;;3.65;;
40623;SDS011;26325;48.594;11.650;2024-03-17T10:32:04;4.25;;;3.95;;
40623;SDS011;26325;48.594;11.650;2024-03-17T10:34:44;4.40;;;4.10;;
40623;SDS011;26325;48.594;11.650;2024-03-17T10:37:19;4.68;;;4.28;;
40623;SDS011;26325;48.594;11.650;2024-03-17T10:39:51;4.25;;;3.95;;
40623;SDS011;26325;48.594;11.650;2024-03-17T10:42:29;5.28;;;4.88;;
40623;SDS011;26325;48.594;11.650;2024-03-17T10:44:56;4.63;;;4.22;;
40623;SDS011;26325;48.594;11.650;2024-03-17T10:47:27;4.20;;;3.90;;
40623;SDS011;26325;48.594;11.650;2024-03-17T10:49:56;3.90;;;3.60;;
40623;SDS011;26325;48.594;11.650;2024-03-17T10:52:23;4.13;;;3.83;;
40623;SDS011;26325;48.594;11.650;2024-03-17T10:54:54;3.90;;;3.60;;
40623;SDS011;26325;48.594;11.650;2024-03-17T11:00:04;4.03;;;3.72;;
40623;SDS011;26325;48.594;11.650;2024-03-17T11:02:34;3.88;;;3.58;;
40623;SDS011;26325;48.594;11.650;2024-03-17T11:07:55;3.05;;;2.85;;
40623;SDS011;26325;48.594;11.650;2024-03-17T11:10:35;3.00;;;2.80;;
40623;SDS011;26325;48.594;11.650;2024-03-17T11:13:04;2.95;;;2.75;;
40623;SDS011;26325;48.594;11.650;2024-03-17T11:20:33;3.17;;;2.97;;
40623;SDS011;26325;48.594;11.650;2024-03-17T11:23:00;4.78;;;4.45;;
40623;SDS011;26325;48.594;11.650;2024-03-17T11:28:07;3.40;;;3.20;;
40623;SDS011;26325;48.594;11.650;2024-03-17T11:30:49;3.38;;;3.08;;
40623;SDS011;26325;48.594;11.650;2024-03-17T11:41:53;3.45;;;3.15;;
40623;SDS011;26325;48.594;11.650;2024-03-17T11:47:06;3.20;;;3.00;;
40623;SDS011;26325;48.594;11.650;2024-03-17T11:52:04;3.00;;;2.80;;
40623;SDS011;26325;48.594;11.650;2024-03-17T11:54:37;3.17;;;2.88;;
40623;SDS011;26325;48.594;11.650;2024-03-17T11:57:11;3.05;;;2.85;;
40623;SDS011;26325;48.594;11.650;2024-03-17T11:59:38;3.40;;;3.10;;
40623;SDS011;26325;48.594;11.650;2024-03-17T12:02:26;2.85;;;2.65;;
40623;SDS011;26325;48.594;11.650;2024-03-17T12:04:56;3.33;;;3.10;;
40623;SDS011;26325;48.594;11.650;2024-03-17T12:07:25;2.92;;;2.72;;
40623;SDS011;26325;48.594;11.650;2024-03-17T12:09:53;3.38;;;3.08;;
40623;SDS011;26325;48.594;11.650;2024-03-17T12:12:21;3.25;;;2.95;;
40623;SDS011;26325;48.594;11.650;2024-03-17T12:14:56;3.67;;;3.38;;
40623;SDS011;26325;48.594;11.650;2024-03-17T12:17:23;2.80;;;2.60;;
40623;SDS011;26325;48.594;11.650;2024-03-17T12:19:50;3.63;;;3.33;;
40623;SDS011;26325;48.594;11.650;2024-03-17T12:22:20;3.40;;;3.10;;
40623;SDS011;26325;48.594;11.650;2024-03-17T12:24:53;3.70;;;3.40;;
40623;SDS011;26325;48.594;11.650;2024-03-17T12:27:25;2.90;;;2.70;;
40623;SDS011;26325;48.594;11.650;2024-03-17T12:29:54;3.70;;;3.50;;
40623;SDS011;26325;48.594;11.650;2024-03-17T12:32:23;3.10;;;2.90;;
40623;SDS011;26325;48.594;11.650;2024-03-17T12:34:54;3.03;;;2.83;;
40623;SDS011;26325;48.594;11.650;2024-03-17T12:37:22;3.50;;;3.20;;
40623;SDS011;26325;48.594;11.650;2024-03-17T12:39:51;3.38;;;3.08;;
40623;SDS011;26325;48.594;11.650;2024-03-17T12:42:23;3.10;;;2.90;;
40623;SDS011;26325;48.594;11.650;2024-03-17T12:44:50;3.03;;;2.83;;
40623;SDS011;26325;48.594;11.650;2024-03-17T12:47:27;2.80;;;2.60;;
40623;SDS011;26325;48.594;11.650;2024-03-17T12:49:55;4.95;;;3.15;;
40623;SDS011;26325;48.594;11.650;2024-03-17T12:55:03;3.10;;;2.90;;
40623;SDS011;26325;48.594;11.650;2024-03-17T13:01:04;3.08;;;2.88;;
40623;SDS011;26325;48.594;11.650;2024-03-17T13:03:34;2.58;;;2.45;;
40623;SDS011;26325;48.594;11.650;2024-03-17T13:06:01;2.90;;;2.45;;
40623;SDS011;26325;48.594;11.650;2024-03-17T13:08:29;2.30;;;2.13;;
40623;SDS011;26325;48.594;11.650;2024-03-17T13:10:56;2.38;;;2.17;;
40623;SDS011;26325;48.594;11.650;2024-03-17T13:13:25;2.60;;;2.40;;
40623;SDS011;26325;48.594;11.650;2024-03-17T13:15:55;3.50;;;3.20;;
40623;SDS011;26325;48.594;11.650;2024-03-17T13:18:21;3.25;;;3.05;;
40623;SDS011;26325;48.594;11.650;2024-03-17T13:20:49;2.85;;;2.20;;
40623;SDS011;26325;48.594;11.650;2024-03-17T13:23:19;3.83;;;3.20;;
40623;SDS011;26325;48.594;11.650;2024-03-17T13:25:47;3.40;;;3.10;;
40623;SDS011;26325;48.594;11.650;2024-03-17T13:28:14;7.20;;;3.88;;
40623;SDS011;26325;48.594;11.650;2024-03-17T13:30:40;3.25;;;3.05;;
40623;SDS011;26325;48.594;11.650;2024-03-17T13:33:09;3.35;;;3.05;;
40623;SDS011;26325;48.594;11.650;2024-03-17T13:35:37;4.10;;;3.80;;
40623;SDS011;26325;48.594;11.650;2024-03-17T13:38:07;3.00;;;2.80;;
40623;SDS011;26325;48.594;11.650;2024-03-17T13:40:36;2.70;;;2.50;;
40623;SDS011;26325;48.594;11.650;2024-03-17T13:43:03;3.05;;;2.78;;
40623;SDS011;26325;48.594;11.650;2024-03-17T13:45:42;3.03;;;2.72;;
40623;SDS011;26325;48.594;11.650;2024-03-17T13:48:14;3.05;;;2.80;;
40623;SDS011;26325;48.594;11.650;2024-03-17T13:50:41;2.70;;;2.50;;
40623;SDS011;26325;48.594;11.650;2024-03-17T13:53:09;2.83;;;2.63;;
40623;SDS011;26325;48.594;11.650;2024-03-17T13:55:35;2.65;;;2.45;;
40623;SDS011;26325;48.594;11.650;2024-03-17T13:58:01;3.40;;;3.10;;
40623;SDS011;26325;48.594;11.650;2024-03-17T14:00:28;3.40;;;3.10;;
40623;SDS011;26325;48.594;11.650;2024-03-17T14:02:59;3.03;;;2.83;;
40623;SDS011;26325;48.594;11.650;2024-03-17T14:05:25;3.10;;;2.90;;
40623;SDS011;26325;48.594;11.650;2024-03-17T14:07:52;2.95;;;2.45;;
40623;SDS011;26325;48.594;11.650;2024-03-17T14:10:23;3.65;;;3.13;;
40623;SDS011;26325;48.594;11.650;2024-03-17T14:12:50;3.05;;;2.85;;
40623;SDS011;26325;48.594;11.650;2024-03-17T14:15:16;3.47;;;3.17;;
40623;SDS011;26325;48.594;11.650;2024-03-17T14:17:46;2.78;;;2.58;;
40623;SDS011;26325;48.594;11.650;2024-03-17T14:20:14;2.95;;;2.75;;
40623;SDS011;26325;48.594;11.650;2024-03-17T14:22:43;3.00;;;2.58;;
40623;SDS011;26325;48.594;11.650;2024-03-17T14:25:15;2.85;;;2.63;;
40623;SDS011;26325;48.594;11.650;2024-03-17T14:27:42;2.55;;;2.35;;
40623;SDS011;26325;48.594;11.650;2024-03-17T14:30:08;2.33;;;2.20;;
40623;SDS011;26325;48.594;11.650;2024-03-17T14:32:35;3.17;;;2.40;;
40623;SDS011;26325;48.594;11.650;2024-03-17T14:35:01;2.60;;;2.40;;
40623;SDS011;26325;48.594;11.650;2024-03-17T14:37:28;3.47;;;2.53;;
40623;SDS011;26325;48.594;11.650;2024-03-17T14:39:58;3.38;;;3.08;;
40623;SDS011;26325;48.594;11.650;2024-03-17T14:42:25;3.42;;;2.88;;
40623;SDS011;26325;48.594;11.650;2024-03-17T14:44:50;3.78;;;2.60;;
40623;SDS011;26325;48.594;11.650;2024-03-17T14:47:19;3.30;;;2.70;;
40623;SDS011;26325;48.594;11.650;2024-03-17T14:49:46;2.55;;;2.40;;
40623;SDS011;26325;48.594;11.650;2024-03-17T14:52:16;3.00;;;2.80;;
40623;SDS011;26325;48.594;11.650;2024-03-17T14:54:42;2.70;;;2.50;;
40623;SDS011;26325;48.594;11.650;2024-03-17T14:57:07;2.50;;;2.30;;
40623;SDS011;26325;48.594;11.650;2024-03-17T14:59:34;2.70;;;2.50;;
40623;SDS011;26325;48.594;11.650;2024-03-17T15:02:03;3.28;;;3.05;;
40623;SDS011;26325;48.594;11.650;2024-03-17T15:04:30;2.83;;;2.63;;
40623;SDS011;26325;48.594;11.650;2024-03-17T15:06:56;3.10;;;2.80;;
40623;SDS011;26325;48.594;11.650;2024-03-17T15:09:22;3.17;;;2.88;;
40623;SDS011;26325;48.594;11.650;2024-03-17T15:11:49;2.58;;;2.38;;
40623;SDS011;26325;48.594;11.650;2024-03-17T15:14:15;2.83;;;2.60;;
40623;SDS011;26325;48.594;11.650;2024-03-17T15:16:43;2.55;;;2.28;;
40623;SDS011;26325;48.594;11.650;2024-03-17T15:19:13;2.83;;;2.63;;
40623;SDS011;26325;48.594;11.650;2024-03-17T15:21:39;3.75;;;2.30;;
40623;SDS011;26325;48.594;11.650;2024-03-17T15:24:06;2.50;;;2.33;;
40623;SDS011;26325;48.594;11.650;2024-03-17T15:26:32;2.33;;;2.08;;
40623;SDS011;26325;48.594;11.650;2024-03-17T15:28:58;2.95;;;2.40;;
40623;SDS011;26325;48.594;11.650;2024-03-17T15:31:29;2.03;;;1.92;;
40623;SDS011;26325;48.594;11.650;2024-03-17T15:33:56;2.30;;;2.20;;
40623;SDS011;26325;48.594;11.650;2024-03-17T15:36:23;2.50;;;2.30;;